sensor_id;sensor_type;location;lat;lon;timestamp;temperature;humidity
75170;SHT31;63749;49.186;9.222;2023-07-29T00:00:19;17.64;98.68
75170;SHT31;63749;49.186;9.222;2023-07-29T00:02:45;17.72;98.45
75170;SHT31;63749;49.186;9.222;2023-07-29T00:05:11;17.75;98.41
75170;SHT31;63749;49.186;9.222;2023-07-29T00:07:36;17.81;98.41
75170;SHT31;63749;49.186;9.222;2023-07-29T00:10:01;17.83;98.26
75170;SHT31;63749;49.186;9.222;2023-07-29T00:12:28;17.88;98.14
75170;SHT31;63749;49.186;9.222;2023-07-29T00:14:54;17.92;98.13
75170;SHT31;63749;49.186;9.222;2023-07-29T00:17:19;17.93;98.30
75170;SHT31;63749;49.186;9.222;2023-07-29T00:19:45;17.95;98.24
75170;SHT31;63749;49.186;9.222;2023-07-29T00:22:11;17.93;98.18
75170;SHT31;63749;49.186;9.222;2023-07-29T00:24:36;17.96;98.08
75170;SHT31;63749;49.186;9.222;2023-07-29T00:27:01;17.98;98.08
75170;SHT31;63749;49.186;9.222;2023-07-29T00:29:27;17.98;98.02
75170;SHT31;63749;49.186;9.222;2023-07-29T00:31:52;18.02;98.05
75170;SHT31;63749;49.186;9.222;2023-07-29T00:34:17;18.00;98.01
75170;SHT31;63749;49.186;9.222;2023-07-29T00:36:45;18.03;98.07
75170;SHT31;63749;49.186;9.222;2023-07-29T00:39:10;18.02;97.81
75170;SHT31;63749;49.186;9.222;2023-07-29T00:41:36;18.02;97.64
75170;SHT31;63749;49.186;9.222;2023-07-29T00:44:01;18.05;97.66
75170;SHT31;63749;49.186;9.222;2023-07-29T00:46:28;18.06;97.78
75170;SHT31;63749;49.186;9.222;2023-07-29T00:48:53;18.05;97.72
75170;SHT31;63749;49.186;9.222;2023-07-29T00:51:19;18.06;97.87
75170;SHT31;63749;49.186;9.222;2023-07-29T00:53:44;18.09;97.83
75170;SHT31;63749;49.186;9.222;2023-07-29T00:56:10;18.10;97.85
75170;SHT31;63749;49.186;9.222;2023-07-29T00:58:35;18.14;98.06
75170;SHT31;63749;49.186;9.222;2023-07-29T01:01:01;18.16;97.89
75170;SHT31;63749;49.186;9.222;2023-07-29T01:03:26;18.16;97.90
75170;SHT31;63749;49.186;9.222;2023-07-29T01:08:27;18.19;97.79
75170;SHT31;63749;49.186;9.222;2023-07-29T01:11:25;18.17;97.56
75170;SHT31;63749;49.186;9.222;2023-07-29T01:14:00;18.22;97.48
75170;SHT31;63749;49.186;9.222;2023-07-29T01:16:42;18.19;97.61
75170;SHT31;63749;49.186;9.222;2023-07-29T01:19:23;18.16;97.76
75170;SHT31;63749;49.186;9.222;2023-07-29T01:21:53;18.14;97.76
75170;SHT31;63749;49.186;9.222;2023-07-29T01:24:20;18.12;97.49
75170;SHT31;63749;49.186;9.222;2023-07-29T01:26:45;18.09;97.50
75170;SHT31;63749;49.186;9.222;2023-07-29T01:29:10;18.09;97.38
75170;SHT31;63749;49.186;9.222;2023-07-29T01:31:43;18.09;97.28
75170;SHT31;63749;49.186;9.222;2023-07-29T01:34:15;18.06;97.52
75170;SHT31;63749;49.186;9.222;2023-07-29T01:36:44;18.06;97.51
75170;SHT31;63749;49.186;9.222;2023-07-29T01:39:11;18.05;97.51
75170;SHT31;63749;49.186;9.222;2023-07-29T01:41:37;18.08;97.57
75170;SHT31;63749;49.186;9.222;2023-07-29T01:44:03;18.09;97.69
75170;SHT31;63749;49.186;9.222;2023-07-29T01:46:29;18.12;97.83
75170;SHT31;63749;49.186;9.222;2023-07-29T01:48:54;18.14;98.01
75170;SHT31;63749;49.186;9.222;2023-07-29T01:51:19;18.17;97.89
75170;SHT31;63749;49.186;9.222;2023-07-29T01:53:46;18.19;97.82
75170;SHT31;63749;49.186;9.222;2023-07-29T01:56:11;18.20;97.79
75170;SHT31;63749;49.186;9.222;2023-07-29T01:58:37;18.17;97.94
75170;SHT31;63749;49.186;9.222;2023-07-29T02:01:02;18.17;97.63
75170;SHT31;63749;49.186;9.222;2023-07-29T02:03:27;18.17;97.54
75170;SHT31;63749;49.186;9.222;2023-07-29T02:05:53;18.17;97.38
75170;SHT31;63749;49.186;9.222;2023-07-29T02:08:18;18.16;97.08
75170;SHT31;63749;49.186;9.222;2023-07-29T02:10:43;18.16;96.58
75170;SHT31;63749;49.186;9.222;2023-07-29T02:13:10;18.14;96.66
75170;SHT31;63749;49.186;9.222;2023-07-29T02:15:35;18.13;96.75
75170;SHT31;63749;49.186;9.222;2023-07-29T02:18:01;18.14;96.56
75170;SHT31;63749;49.186;9.222;2023-07-29T02:20:27;18.14;96.67
75170;SHT31;63749;49.186;9.222;2023-07-29T02:22:52;18.16;96.64
75170;SHT31;63749;49.186;9.222;2023-07-29T02:25:18;18.10;96.45
75170;SHT31;63749;49.186;9.222;2023-07-29T02:27:43;18.10;96.35
75170;SHT31;63749;49.186;9.222;2023-07-29T02:30:08;18.12;96.29
75170;SHT31;63749;49.186;9.222;2023-07-29T02:32:37;18.17;96.46
75170;SHT31;63749;49.186;9.222;2023-07-29T02:35:03;18.22;96.18
75170;SHT31;63749;49.186;9.222;2023-07-29T02:37:30;18.28;95.85
75170;SHT31;63749;49.186;9.222;2023-07-29T02:39:55;18.30;95.99
75170;SHT31;63749;49.186;9.222;2023-07-29T02:42:20;18.34;95.66
75170;SHT31;63749;49.186;9.222;2023-07-29T02:44:46;18.37;95.62
75170;SHT31;63749;49.186;9.222;2023-07-29T02:47:11;18.39;95.30
75170;SHT31;63749;49.186;9.222;2023-07-29T02:49:37;18.40;94.90
75170;SHT31;63749;49.186;9.222;2023-07-29T02:52:02;18.40;95.03
75170;SHT31;63749;49.186;9.222;2023-07-29T02:54:28;18.44;95.13
75170;SHT31;63749;49.186;9.222;2023-07-29T02:56:53;18.46;94.86
75170;SHT31;63749;49.186;9.222;2023-07-29T02:59:18;18.46;94.34
75170;SHT31;63749;49.186;9.222;2023-07-29T03:01:45;18.46;94.54
75170;SHT31;63749;49.186;9.222;2023-07-29T03:04:10;18.43;94.05
75170;SHT31;63749;49.186;9.222;2023-07-29T03:06:38;18.29;94.22
75170;SHT31;63749;49.186;9.222;2023-07-29T03:09:03;18.25;94.29
75170;SHT31;63749;49.186;9.222;2023-07-29T03:11:28;18.17;94.50
75170;SHT31;63749;49.186;9.222;2023-07-29T03:13:54;18.17;94.20
75170;SHT31;63749;49.186;9.222;2023-07-29T03:16:19;18.25;94.17
75170;SHT31;63749;49.186;9.222;2023-07-29T03:18:45;18.32;94.11
75170;SHT31;63749;49.186;9.222;2023-07-29T03:21:10;18.39;93.54
75170;SHT31;63749;49.186;9.222;2023-07-29T03:23:37;18.37;94.03
75170;SHT31;63749;49.186;9.222;2023-07-29T03:26:03;18.34;93.89
75170;SHT31;63749;49.186;9.222;2023-07-29T03:28:42;18.40;93.69
75170;SHT31;63749;49.186;9.222;2023-07-29T03:31:07;18.40;93.84
75170;SHT31;63749;49.186;9.222;2023-07-29T03:33:33;18.39;93.78
75170;SHT31;63749;49.186;9.222;2023-07-29T03:35:58;18.40;93.66
75170;SHT31;63749;49.186;9.222;2023-07-29T03:38:24;18.44;93.66
75170;SHT31;63749;49.186;9.222;2023-07-29T03:40:50;18.43;93.81
75170;SHT31;63749;49.186;9.222;2023-07-29T03:43:15;18.36;94.54
75170;SHT31;63749;49.186;9.222;2023-07-29T03:45:41;18.39;94.43
75170;SHT31;63749;49.186;9.222;2023-07-29T03:48:06;18.41;94.34
75170;SHT31;63749;49.186;9.222;2023-07-29T03:50:34;18.46;93.64
75170;SHT31;63749;49.186;9.222;2023-07-29T03:53:01;18.40;94.21
75170;SHT31;63749;49.186;9.222;2023-07-29T03:55:26;18.32;94.46
75170;SHT31;63749;49.186;9.222;2023-07-29T03:57:52;18.30;94.38
75170;SHT31;63749;49.186;9.222;2023-07-29T04:00:17;18.29;94.24
75170;SHT31;63749;49.186;9.222;2023-07-29T04:02:43;18.28;94.27
75170;SHT31;63749;49.186;9.222;2023-07-29T04:05:10;18.29;94.44
75170;SHT31;63749;49.186;9.222;2023-07-29T04:07:36;18.30;94.13
75170;SHT31;63749;49.186;9.222;2023-07-29T04:10:02;18.23;94.36
75170;SHT31;63749;49.186;9.222;2023-07-29T04:12:27;18.25;94.56
75170;SHT31;63749;49.186;9.222;2023-07-29T04:14:53;18.29;94.16
75170;SHT31;63749;49.186;9.222;2023-07-29T04:17:18;18.37;93.75
75170;SHT31;63749;49.186;9.222;2023-07-29T04:19:44;18.40;93.61
75170;SHT31;63749;49.186;9.222;2023-07-29T04:22:09;18.44;93.43
75170;SHT31;63749;49.186;9.222;2023-07-29T04:24:34;18.43;93.62
75170;SHT31;63749;49.186;9.222;2023-07-29T04:27:00;18.40;93.68
75170;SHT31;63749;49.186;9.222;2023-07-29T04:29:25;18.44;93.66
75170;SHT31;63749;49.186;9.222;2023-07-29T04:31:51;18.46;93.48
75170;SHT31;63749;49.186;9.222;2023-07-29T04:34:17;18.47;93.41
75170;SHT31;63749;49.186;9.222;2023-07-29T04:36:43;18.46;93.98
75170;SHT31;63749;49.186;9.222;2023-07-29T04:39:08;18.44;93.81
75170;SHT31;63749;49.186;9.222;2023-07-29T04:41:34;18.47;93.31
75170;SHT31;63749;49.186;9.222;2023-07-29T04:43:59;18.47;93.78
75170;SHT31;63749;49.186;9.222;2023-07-29T04:46:25;18.47;93.87
75170;SHT31;63749;49.186;9.222;2023-07-29T04:48:50;18.43;93.85
75170;SHT31;63749;49.186;9.222;2023-07-29T04:51:15;18.44;93.90
75170;SHT31;63749;49.186;9.222;2023-07-29T04:53:41;18.43;94.14
75170;SHT31;63749;49.186;9.222;2023-07-29T04:56:06;18.37;94.38
75170;SHT31;63749;49.186;9.222;2023-07-29T04:58:31;18.32;94.66
75170;SHT31;63749;49.186;9.222;2023-07-29T05:00:59;18.30;94.94
75170;SHT31;63749;49.186;9.222;2023-07-29T05:03:25;18.30;94.96
75170;SHT31;63749;49.186;9.222;2023-07-29T05:05:51;18.25;95.31
75170;SHT31;63749;49.186;9.222;2023-07-29T05:08:18;18.29;95.15
75170;SHT31;63749;49.186;9.222;2023-07-29T05:10:43;18.25;95.35
75170;SHT31;63749;49.186;9.222;2023-07-29T05:13:09;18.20;95.74
75170;SHT31;63749;49.186;9.222;2023-07-29T05:15:34;18.22;95.67
75170;SHT31;63749;49.186;9.222;2023-07-29T05:17:59;18.34;95.30
75170;SHT31;63749;49.186;9.222;2023-07-29T05:20:25;18.36;95.46
75170;SHT31;63749;49.186;9.222;2023-07-29T05:22:50;18.03;97.08
75170;SHT31;63749;49.186;9.222;2023-07-29T05:25:16;17.96;97.60
75170;SHT31;63749;49.186;9.222;2023-07-29T05:27:41;17.96;97.73
75170;SHT31;63749;49.186;9.222;2023-07-29T05:30:07;18.00;97.63
75170;SHT31;63749;49.186;9.222;2023-07-29T05:32:32;18.10;97.09
75170;SHT31;63749;49.186;9.222;2023-07-29T05:34:58;18.14;97.14
75170;SHT31;63749;49.186;9.222;2023-07-29T05:37:23;18.14;97.03
75170;SHT31;63749;49.186;9.222;2023-07-29T05:39:48;18.14;97.38
75170;SHT31;63749;49.186;9.222;2023-07-29T05:42:14;18.16;97.30
75170;SHT31;63749;49.186;9.222;2023-07-29T05:44:39;18.22;97.45
75170;SHT31;63749;49.186;9.222;2023-07-29T05:47:04;18.28;97.31
75170;SHT31;63749;49.186;9.222;2023-07-29T05:49:30;18.32;97.36
75170;SHT31;63749;49.186;9.222;2023-07-29T05:51:55;18.33;97.09
75170;SHT31;63749;49.186;9.222;2023-07-29T05:54:21;18.43;96.94
75170;SHT31;63749;49.186;9.222;2023-07-29T05:56:46;18.47;97.11
75170;SHT31;63749;49.186;9.222;2023-07-29T05:59:11;18.51;96.56
75170;SHT31;63749;49.186;9.222;2023-07-29T06:01:37;18.57;96.46
75170;SHT31;63749;49.186;9.222;2023-07-29T06:04:02;18.65;96.69
75170;SHT31;63749;49.186;9.222;2023-07-29T06:06:28;18.71;96.28
75170;SHT31;63749;49.186;9.222;2023-07-29T06:08:53;18.81;95.75
75170;SHT31;63749;49.186;9.222;2023-07-29T06:11:18;18.95;95.78
75170;SHT31;63749;49.186;9.222;2023-07-29T06:13:44;19.14;94.99
75170;SHT31;63749;49.186;9.222;2023-07-29T06:16:09;19.30;94.73
75170;SHT31;63749;49.186;9.222;2023-07-29T06:18:34;19.40;94.17
75170;SHT31;63749;49.186;9.222;2023-07-29T06:21:00;19.45;93.66
75170;SHT31;63749;49.186;9.222;2023-07-29T06:23:25;19.38;94.04
75170;SHT31;63749;49.186;9.222;2023-07-29T06:25:51;19.39;94.63
75170;SHT31;63749;49.186;9.222;2023-07-29T06:28:16;19.32;94.18
75170;SHT31;63749;49.186;9.222;2023-07-29T06:30:41;19.26;93.58
75170;SHT31;63749;49.186;9.222;2023-07-29T06:33:06;19.36;93.63
75170;SHT31;63749;49.186;9.222;2023-07-29T06:35:32;19.55;93.28
75170;SHT31;63749;49.186;9.222;2023-07-29T06:37:57;19.76;93.08
75170;SHT31;63749;49.186;9.222;2023-07-29T06:40:22;19.93;92.31
75170;SHT31;63749;49.186;9.222;2023-07-29T06:42:48;20.20;91.54
75170;SHT31;63749;49.186;9.222;2023-07-29T06:45:13;20.24;90.82
75170;SHT31;63749;49.186;9.222;2023-07-29T06:47:40;20.21;90.78
75170;SHT31;63749;49.186;9.222;2023-07-29T06:50:06;20.24;90.55
75170;SHT31;63749;49.186;9.222;2023-07-29T06:52:31;20.14;90.92
75170;SHT31;63749;49.186;9.222;2023-07-29T06:54:56;20.00;91.23
75170;SHT31;63749;49.186;9.222;2023-07-29T06:57:22;19.88;91.79
75170;SHT31;63749;49.186;9.222;2023-07-29T06:59:47;19.76;92.30
75170;SHT31;63749;49.186;9.222;2023-07-29T07:02:12;19.57;93.35
75170;SHT31;63749;49.186;9.222;2023-07-29T07:04:38;19.53;93.59
75170;SHT31;63749;49.186;9.222;2023-07-29T07:07:04;19.50;93.49
75170;SHT31;63749;49.186;9.222;2023-07-29T07:09:29;19.65;93.53
75170;SHT31;63749;49.186;9.222;2023-07-29T07:11:54;19.80;92.82
75170;SHT31;63749;49.186;9.222;2023-07-29T07:14:20;19.97;92.53
75170;SHT31;63749;49.186;9.222;2023-07-29T07:16:45;20.00;92.11
75170;SHT31;63749;49.186;9.222;2023-07-29T07:19:10;20.01;92.05
75170;SHT31;63749;49.186;9.222;2023-07-29T07:21:36;20.03;92.09
75170;SHT31;63749;49.186;9.222;2023-07-29T07:24:01;20.04;92.14
75170;SHT31;63749;49.186;9.222;2023-07-29T07:26:27;20.03;91.73
75170;SHT31;63749;49.186;9.222;2023-07-29T07:28:52;19.98;92.06
75170;SHT31;63749;49.186;9.222;2023-07-29T07:31:17;20.04;91.91
75170;SHT31;63749;49.186;9.222;2023-07-29T07:33:43;20.25;91.18
75170;SHT31;63749;49.186;9.222;2023-07-29T07:36:08;20.38;91.02
75170;SHT31;63749;49.186;9.222;2023-07-29T07:38:33;20.53;90.91
75170;SHT31;63749;49.186;9.222;2023-07-29T07:40:59;20.85;89.96
75170;SHT31;63749;49.186;9.222;2023-07-29T07:43:24;21.02;89.47
75170;SHT31;63749;49.186;9.222;2023-07-29T07:45:50;21.03;90.06
75170;SHT31;63749;49.186;9.222;2023-07-29T07:48:16;21.11;88.17
75170;SHT31;63749;49.186;9.222;2023-07-29T07:50:45;21.11;88.52
75170;SHT31;63749;49.186;9.222;2023-07-29T07:53:10;21.03;88.60
75170;SHT31;63749;49.186;9.222;2023-07-29T07:55:36;21.14;88.96
75170;SHT31;63749;49.186;9.222;2023-07-29T07:58:01;21.37;88.11
75170;SHT31;63749;49.186;9.222;2023-07-29T08:00:26;21.48;87.39
75170;SHT31;63749;49.186;9.222;2023-07-29T08:02:51;21.62;85.82
75170;SHT31;63749;49.186;9.222;2023-07-29T08:05:17;21.86;85.09
75170;SHT31;63749;49.186;9.222;2023-07-29T08:07:43;21.96;85.15
75170;SHT31;63749;49.186;9.222;2023-07-29T08:10:08;22.10;85.18
75170;SHT31;63749;49.186;9.222;2023-07-29T08:12:34;22.05;85.67
75170;SHT31;63749;49.186;9.222;2023-07-29T08:14:59;22.22;85.32
75170;SHT31;63749;49.186;9.222;2023-07-29T08:17:24;22.54;83.91
75170;SHT31;63749;49.186;9.222;2023-07-29T08:19:50;22.67;83.22
75170;SHT31;63749;49.186;9.222;2023-07-29T08:22:15;22.24;83.86
75170;SHT31;63749;49.186;9.222;2023-07-29T08:24:42;22.26;83.79
75170;SHT31;63749;49.186;9.222;2023-07-29T08:27:07;22.02;85.58
75170;SHT31;63749;49.186;9.222;2023-07-29T08:29:33;21.86;86.92
75170;SHT31;63749;49.186;9.222;2023-07-29T08:31:58;21.79;86.84
75170;SHT31;63749;49.186;9.222;2023-07-29T08:34:23;22.02;84.70
75170;SHT31;63749;49.186;9.222;2023-07-29T08:36:49;21.99;85.26
75170;SHT31;63749;49.186;9.222;2023-07-29T08:39:14;22.15;84.96
75170;SHT31;63749;49.186;9.222;2023-07-29T08:42:02;22.13;85.51
75170;SHT31;63749;49.186;9.222;2023-07-29T08:44:35;22.15;85.28
75170;SHT31;63749;49.186;9.222;2023-07-29T08:47:00;22.15;84.39
75170;SHT31;63749;49.186;9.222;2023-07-29T08:49:26;22.20;84.22
75170;SHT31;63749;49.186;9.222;2023-07-29T08:51:53;22.10;83.50
75170;SHT31;63749;49.186;9.222;2023-07-29T08:54:19;22.10;83.13
75170;SHT31;63749;49.186;9.222;2023-07-29T08:56:45;22.08;83.29
75170;SHT31;63749;49.186;9.222;2023-07-29T08:59:11;22.10;82.81
75170;SHT31;63749;49.186;9.222;2023-07-29T09:01:41;22.17;83.33
75170;SHT31;63749;49.186;9.222;2023-07-29T09:04:06;22.46;82.19
75170;SHT31;63749;49.186;9.222;2023-07-29T09:06:32;22.68;81.84
75170;SHT31;63749;49.186;9.222;2023-07-29T09:08:58;22.83;82.43
75170;SHT31;63749;49.186;9.222;2023-07-29T09:11:25;22.97;81.66
75170;SHT31;63749;49.186;9.222;2023-07-29T09:13:50;23.39;81.13
75170;SHT31;63749;49.186;9.222;2023-07-29T09:16:16;23.52;80.05
75170;SHT31;63749;49.186;9.222;2023-07-29T09:18:41;23.74;79.72
75170;SHT31;63749;49.186;9.222;2023-07-29T09:21:07;24.04;78.63
75170;SHT31;63749;49.186;9.222;2023-07-29T09:23:41;24.24;78.23
75170;SHT31;63749;49.186;9.222;2023-07-29T09:26:07;24.14;77.94
75170;SHT31;63749;49.186;9.222;2023-07-29T09:28:34;24.20;77.62
75170;SHT31;63749;49.186;9.222;2023-07-29T09:31:00;24.07;76.61
75170;SHT31;63749;49.186;9.222;2023-07-29T09:33:26;24.10;77.88
75170;SHT31;63749;49.186;9.222;2023-07-29T09:35:52;24.20;76.87
75170;SHT31;63749;49.186;9.222;2023-07-29T09:38:17;24.10;75.40
75170;SHT31;63749;49.186;9.222;2023-07-29T09:40:43;24.13;76.87
75170;SHT31;63749;49.186;9.222;2023-07-29T09:43:10;24.20;76.23
75170;SHT31;63749;49.186;9.222;2023-07-29T09:45:36;24.38;76.52
75170;SHT31;63749;49.186;9.222;2023-07-29T09:48:03;24.18;74.74
75170;SHT31;63749;49.186;9.222;2023-07-29T09:50:30;24.24;74.28
75170;SHT31;63749;49.186;9.222;2023-07-29T09:52:57;23.96;74.47
75170;SHT31;63749;49.186;9.222;2023-07-29T09:55:26;23.67;76.17
75170;SHT31;63749;49.186;9.222;2023-07-29T09:57:59;23.65;76.45
75170;SHT31;63749;49.186;9.222;2023-07-29T10:00:31;23.77;76.18
75170;SHT31;63749;49.186;9.222;2023-07-29T10:02:57;23.89;75.65
75170;SHT31;63749;49.186;9.222;2023-07-29T10:05:26;24.03;75.19
75170;SHT31;63749;49.186;9.222;2023-07-29T10:07:53;24.35;74.49
75170;SHT31;63749;49.186;9.222;2023-07-29T10:10:19;24.67;72.59
75170;SHT31;63749;49.186;9.222;2023-07-29T10:12:45;24.83;72.48
75170;SHT31;63749;49.186;9.222;2023-07-29T10:15:11;24.79;73.12
75170;SHT31;63749;49.186;9.222;2023-07-29T10:17:38;24.64;72.79
75170;SHT31;63749;49.186;9.222;2023-07-29T10:20:06;24.93;71.82
75170;SHT31;63749;49.186;9.222;2023-07-29T10:22:36;24.99;72.41
75170;SHT31;63749;49.186;9.222;2023-07-29T10:25:07;24.92;70.86
75170;SHT31;63749;49.186;9.222;2023-07-29T10:27:47;24.88;72.41
75170;SHT31;63749;49.186;9.222;2023-07-29T10:30:12;24.95;73.00
75170;SHT31;63749;49.186;9.222;2023-07-29T10:32:38;25.12;71.29
75170;SHT31;63749;49.186;9.222;2023-07-29T10:35:06;25.19;71.07
75170;SHT31;63749;49.186;9.222;2023-07-29T10:37:32;25.67;69.55
75170;SHT31;63749;49.186;9.222;2023-07-29T10:39:58;25.88;69.07
75170;SHT31;63749;49.186;9.222;2023-07-29T10:42:23;25.68;69.35
75170;SHT31;63749;49.186;9.222;2023-07-29T10:44:50;25.64;69.43
75170;SHT31;63749;49.186;9.222;2023-07-29T10:47:22;25.61;68.32
75170;SHT31;63749;49.186;9.222;2023-07-29T10:49:50;25.57;68.20
75170;SHT31;63749;49.186;9.222;2023-07-29T10:54:55;25.88;67.50
75170;SHT31;63749;49.186;9.222;2023-07-29T10:57:39;25.70;68.29
75170;SHT31;63749;49.186;9.222;2023-07-29T11:00:07;25.64;68.53
75170;SHT31;63749;49.186;9.222;2023-07-29T11:02:37;25.65;66.64
75170;SHT31;63749;49.186;9.222;2023-07-29T11:05:08;26.25;65.57
75170;SHT31;63749;49.186;9.222;2023-07-29T11:07:45;26.49;64.63
75170;SHT31;63749;49.186;9.222;2023-07-29T11:10:12;26.46;62.46
75170;SHT31;63749;49.186;9.222;2023-07-29T11:12:47;26.37;61.95
75170;SHT31;63749;49.186;9.222;2023-07-29T11:15:24;26.70;62.26
75170;SHT31;63749;49.186;9.222;2023-07-29T11:17:57;26.91;62.63
75170;SHT31;63749;49.186;9.222;2023-07-29T11:20:30;26.88;63.84
75170;SHT31;63749;49.186;9.222;2023-07-29T11:22:57;26.46;63.92
75170;SHT31;63749;49.186;9.222;2023-07-29T11:25:24;26.57;62.28
75170;SHT31;63749;49.186;9.222;2023-07-29T11:27:54;26.49;63.07
75170;SHT31;63749;49.186;9.222;2023-07-29T11:30:20;26.83;63.00
75170;SHT31;63749;49.186;9.222;2023-07-29T11:32:46;26.95;62.20
75170;SHT31;63749;49.186;9.222;2023-07-29T11:35:15;26.72;61.35
75170;SHT31;63749;49.186;9.222;2023-07-29T11:37:44;26.59;62.05
75170;SHT31;63749;49.186;9.222;2023-07-29T11:40:17;26.46;60.89
75170;SHT31;63749;49.186;9.222;2023-07-29T11:42:43;26.40;61.19
75170;SHT31;63749;49.186;9.222;2023-07-29T11:45:10;26.32;61.72
75170;SHT31;63749;49.186;9.222;2023-07-29T11:47:36;25.85;60.23
75170;SHT31;63749;49.186;9.222;2023-07-29T11:50:06;25.92;61.10
75170;SHT31;63749;49.186;9.222;2023-07-29T11:52:36;25.74;61.55
75170;SHT31;63749;49.186;9.222;2023-07-29T11:55:04;26.04;60.02
75170;SHT31;63749;49.186;9.222;2023-07-29T11:57:30;26.18;59.80
75170;SHT31;63749;49.186;9.222;2023-07-29T11:59:56;26.05;58.67
75170;SHT31;63749;49.186;9.222;2023-07-29T12:02:23;26.36;57.51
75170;SHT31;63749;49.186;9.222;2023-07-29T12:04:49;26.67;56.95
75170;SHT31;63749;49.186;9.222;2023-07-29T12:07:16;27.20;56.09
75170;SHT31;63749;49.186;9.222;2023-07-29T12:09:42;27.21;56.39
75170;SHT31;63749;49.186;9.222;2023-07-29T12:12:08;27.34;56.98
75170;SHT31;63749;49.186;9.222;2023-07-29T12:14:34;27.70;56.62
75170;SHT31;63749;49.186;9.222;2023-07-29T12:17:01;27.70;56.94
75170;SHT31;63749;49.186;9.222;2023-07-29T12:19:37;28.06;56.04
75170;SHT31;63749;49.186;9.222;2023-07-29T12:22:05;28.13;54.99
75170;SHT31;63749;49.186;9.222;2023-07-29T12:24:32;28.07;54.56
75170;SHT31;63749;49.186;9.222;2023-07-29T12:26:58;27.79;56.29
75170;SHT31;63749;49.186;9.222;2023-07-29T12:29:25;28.16;54.56
75170;SHT31;63749;49.186;9.222;2023-07-29T12:31:58;28.24;54.28
75170;SHT31;63749;49.186;9.222;2023-07-29T12:34:25;28.14;53.50
75170;SHT31;63749;49.186;9.222;2023-07-29T12:36:51;27.82;54.26
75170;SHT31;63749;49.186;9.222;2023-07-29T12:39:17;27.56;55.10
75170;SHT31;63749;49.186;9.222;2023-07-29T12:41:43;27.92;54.46
75170;SHT31;63749;49.186;9.222;2023-07-29T12:44:08;28.50;52.88
75170;SHT31;63749;49.186;9.222;2023-07-29T12:46:33;28.24;52.94
75170;SHT31;63749;49.186;9.222;2023-07-29T12:48:59;28.31;51.90
75170;SHT31;63749;49.186;9.222;2023-07-29T12:51:24;29.13;49.77
75170;SHT31;63749;49.186;9.222;2023-07-29T12:53:49;29.78;48.94
75170;SHT31;63749;49.186;9.222;2023-07-29T12:56:15;30.35;48.27
75170;SHT31;63749;49.186;9.222;2023-07-29T12:58:40;30.75;46.41
75170;SHT31;63749;49.186;9.222;2023-07-29T13:01:05;31.14;45.99
75170;SHT31;63749;49.186;9.222;2023-07-29T13:03:31;31.14;46.57
75170;SHT31;63749;49.186;9.222;2023-07-29T13:05:56;31.71;45.63
75170;SHT31;63749;49.186;9.222;2023-07-29T13:08:21;31.31;45.08
75170;SHT31;63749;49.186;9.222;2023-07-29T13:10:48;31.76;45.42
75170;SHT31;63749;49.186;9.222;2023-07-29T13:13:13;31.66;45.63
75170;SHT31;63749;49.186;9.222;2023-07-29T13:15:39;31.61;45.65
75170;SHT31;63749;49.186;9.222;2023-07-29T13:18:04;31.51;45.28
75170;SHT31;63749;49.186;9.222;2023-07-29T13:20:29;31.44;45.16
75170;SHT31;63749;49.186;9.222;2023-07-29T13:22:55;31.06;46.13
75170;SHT31;63749;49.186;9.222;2023-07-29T13:25:20;30.17;47.36
75170;SHT31;63749;49.186;9.222;2023-07-29T13:27:46;30.91;45.37
75170;SHT31;63749;49.186;9.222;2023-07-29T13:30:11;31.45;45.47
75170;SHT31;63749;49.186;9.222;2023-07-29T13:32:36;30.33;48.44
75170;SHT31;63749;49.186;9.222;2023-07-29T13:35:02;30.24;47.17
75170;SHT31;63749;49.186;9.222;2023-07-29T13:37:27;29.63;48.64
75170;SHT31;63749;49.186;9.222;2023-07-29T13:39:52;29.78;48.38
75170;SHT31;63749;49.186;9.222;2023-07-29T13:42:18;29.39;49.41
75170;SHT31;63749;49.186;9.222;2023-07-29T13:44:43;28.57;51.34
75170;SHT31;63749;49.186;9.222;2023-07-29T13:47:08;29.40;50.02
75170;SHT31;63749;49.186;9.222;2023-07-29T13:49:33;30.82;45.74
75170;SHT31;63749;49.186;9.222;2023-07-29T13:51:59;31.66;45.15
75170;SHT31;63749;49.186;9.222;2023-07-29T13:54:24;33.25;42.23
75170;SHT31;63749;49.186;9.222;2023-07-29T13:56:49;33.21;41.54
75170;SHT31;63749;49.186;9.222;2023-07-29T13:59:15;33.07;41.85
75170;SHT31;63749;49.186;9.222;2023-07-29T14:01:40;33.48;40.81
75170;SHT31;63749;49.186;9.222;2023-07-29T14:04:05;32.32;43.32
75170;SHT31;63749;49.186;9.222;2023-07-29T14:06:32;31.15;44.46
75170;SHT31;63749;49.186;9.222;2023-07-29T14:08:57;30.82;45.26
75170;SHT31;63749;49.186;9.222;2023-07-29T14:11:22;30.84;45.56
75170;SHT31;63749;49.186;9.222;2023-07-29T14:13:48;30.59;44.66
75170;SHT31;63749;49.186;9.222;2023-07-29T14:16:13;30.29;44.81
75170;SHT31;63749;49.186;9.222;2023-07-29T14:18:38;31.92;41.83
75170;SHT31;63749;49.186;9.222;2023-07-29T14:21:04;31.28;43.60
75170;SHT31;63749;49.186;9.222;2023-07-29T14:23:29;32.90;40.12
75170;SHT31;63749;49.186;9.222;2023-07-29T14:25:55;34.58;37.20
75170;SHT31;63749;49.186;9.222;2023-07-29T14:28:20;35.15;36.99
75170;SHT31;63749;49.186;9.222;2023-07-29T14:30:46;34.76;37.06
75170;SHT31;63749;49.186;9.222;2023-07-29T14:33:11;35.09;37.27
75170;SHT31;63749;49.186;9.222;2023-07-29T14:35:36;34.76;36.72
75170;SHT31;63749;49.186;9.222;2023-07-29T14:38:02;35.12;36.50
75170;SHT31;63749;49.186;9.222;2023-07-29T14:40:27;35.29;36.37
75170;SHT31;63749;49.186;9.222;2023-07-29T14:42:53;35.17;35.94
75170;SHT31;63749;49.186;9.222;2023-07-29T14:45:18;35.26;35.73
75170;SHT31;63749;49.186;9.222;2023-07-29T14:47:43;34.38;37.28
75170;SHT31;63749;49.186;9.222;2023-07-29T14:50:09;32.30;40.30
75170;SHT31;63749;49.186;9.222;2023-07-29T14:52:34;34.44;37.49
75170;SHT31;63749;49.186;9.222;2023-07-29T14:54:59;35.63;36.06
75170;SHT31;63749;49.186;9.222;2023-07-29T14:57:25;35.69;36.08
75170;SHT31;63749;49.186;9.222;2023-07-29T14:59:50;35.47;35.51
75170;SHT31;63749;49.186;9.222;2023-07-29T15:02:15;35.20;35.81
75170;SHT31;63749;49.186;9.222;2023-07-29T15:04:41;35.25;36.05
75170;SHT31;63749;49.186;9.222;2023-07-29T15:07:06;35.60;36.06
75170;SHT31;63749;49.186;9.222;2023-07-29T15:09:31;35.92;35.56
75170;SHT31;63749;49.186;9.222;2023-07-29T15:11:57;36.43;35.03
75170;SHT31;63749;49.186;9.222;2023-07-29T15:14:22;32.84;39.95
75170;SHT31;63749;49.186;9.222;2023-07-29T15:16:47;33.11;39.96
75170;SHT31;63749;49.186;9.222;2023-07-29T15:19:13;33.77;38.96
75170;SHT31;63749;49.186;9.222;2023-07-29T15:21:39;34.99;36.57
75170;SHT31;63749;49.186;9.222;2023-07-29T15:24:04;34.29;37.19
75170;SHT31;63749;49.186;9.222;2023-07-29T15:26:30;33.79;38.25
75170;SHT31;63749;49.186;9.222;2023-07-29T15:28:55;34.57;37.07